Salonica, Greece
Current Conditions -  °F | °C
As of 11:20 PM on Thursday 23 Oct 2014 (Local Time) from LGTS Reporting Station
Few Clouds Few Clouds  
Wind Chill:   Ceiling: Unl
Heat Index:   Visibility: 6mi
Dew Point:   Wind: 3mph
Humidity: 71%   Direction: NA
Pressure: 29.74"   Gusts: NA
Location:  40.52°N, 22.97°E
Report Text: LGTS 232020Z VRB03KT 9999 FEW025 09/04 Q1007 NOSIG
Loading
Personal Weather Stations






























Interactive Weather Map
Tropical Storm Tracking
New forecast layout! Learn more

10-Day Weather Forecast

Advertisements
Track Severe Weather on mobile